createdAt,value
2022-12-23T00:01:09.188Z,100438.22
2022-12-23T00:03:35.844Z,100437.25
2022-12-23T00:06:08.985Z,100435.59
2022-12-23T00:08:36.336Z,100434.63
2022-12-23T00:11:05.552Z,100430.31
2022-12-23T00:13:50.859Z,100440.84
2022-12-23T00:16:17.592Z,100451.41
2022-12-23T00:18:44.032Z,100449.72
2022-12-23T00:21:13.994Z,100459.28
2022-12-23T00:23:42.916Z,100467.19
2022-12-23T00:26:15.615Z,100468.16
2022-12-23T00:28:42.249Z,100474.41
2022-12-23T00:31:09.572Z,100472.59
2022-12-23T00:33:44.185Z,100471.06
2022-12-23T00:36:13.134Z,100472.19
2022-12-23T00:38:58.280Z,100481.06
2022-12-23T00:41:43.681Z,100478.56
2022-12-23T00:44:10.131Z,100486.59
2022-12-23T00:46:37.076Z,100485.75
2022-12-23T00:49:23.204Z,100478.13
2022-12-23T00:51:49.697Z,100467.75
2022-12-23T00:54:16.771Z,100486.28
2022-12-23T00:56:43.325Z,100486.59
2022-12-23T00:59:09.687Z,100484.94
2022-12-23T01:01:54.865Z,100498.09
2022-12-23T01:04:40.708Z,100506.00
2022-12-23T01:07:07.195Z,100495.47
2022-12-23T01:09:34.331Z,100500.97
2022-12-23T01:12:00.821Z,100505.28
2022-12-23T01:14:27.484Z,100488.78
2022-12-23T01:16:53.950Z,100496.00
2022-12-23T01:19:20.335Z,100504.88
2022-12-23T01:21:46.805Z,100505.81
2022-12-23T01:24:13.225Z,100503.47
2022-12-23T01:26:39.676Z,100517.31
2022-12-23T01:29:06.035Z,100524.25
2022-12-23T01:31:32.524Z,100519.94
2022-12-23T01:33:59.024Z,100529.50
2022-12-23T01:36:25.482Z,100526.19
2022-12-23T01:38:52.189Z,100528.13
2022-12-23T01:41:46.477Z,100537.00
2022-12-23T01:44:47.637Z,100536.16
2022-12-23T01:47:23.794Z,100537.81
2022-12-23T01:49:54.912Z,100536.16
2022-12-23T01:52:22.495Z,100539.63
2022-12-23T01:54:48.952Z,100543.91
2022-12-23T01:57:15.641Z,100545.88
2022-12-23T02:00:02.059Z,100551.13
2022-12-23T02:02:50.081Z,100561.66
2022-12-23T02:05:17.026Z,100564.28
2022-12-23T02:08:02.648Z,100574.09
2022-12-23T02:10:38.177Z,100563.72
2022-12-23T02:13:23.691Z,100577.84
2022-12-23T02:16:16.793Z,100579.66
2022-12-23T02:18:59.271Z,100578.91
2022-12-23T02:21:28.704Z,100579.91
2022-12-23T02:24:32.677Z,100578.22
2022-12-23T02:27:23.543Z,100591.66
2022-12-23T02:30:04.947Z,100595.00
2022-12-23T02:32:55.601Z,100597.91
2022-12-23T02:35:31.876Z,100605.81
2022-12-23T02:38:10.388Z,100605.91
2022-12-23T02:41:01.722Z,100610.34
2022-12-23T02:43:39.329Z,100607.00
2022-12-23T02:46:30.551Z,100607.25
2022-12-23T02:49:04.838Z,100625.25
2022-12-23T02:51:36.638Z,100621.22
2022-12-23T02:54:08.029Z,100624.94
2022-12-23T02:56:38.071Z,100626.75
2022-12-23T02:59:11.100Z,100634.88
2022-12-23T03:01:38.797Z,100638.50
2022-12-23T03:04:06.893Z,100638.03
2022-12-23T03:06:41.596Z,100640.66
2022-12-23T03:09:08.385Z,100640.81
2022-12-23T03:11:46.972Z,100642.59
2022-12-23T03:14:32.009Z,100644.53
2022-12-23T03:17:04.516Z,100636.75
2022-12-23T03:19:45.979Z,100640.03
2022-12-23T03:22:34.765Z,100639.81
2022-12-23T03:25:11.446Z,100636.03
2022-12-23T03:28:01.516Z,100631.00
2022-12-23T03:30:29.373Z,100626.72
2022-12-23T03:33:01.683Z,100635.69
2022-12-23T03:35:36.103Z,100634.59
2022-12-23T03:38:03.944Z,100632.69
2022-12-23T03:40:37.931Z,100639.47
2022-12-23T03:43:09.657Z,100639.34
2022-12-23T03:45:42.849Z,100641.28
2022-12-23T03:48:37.537Z,100645.13
2022-12-23T03:51:28.250Z,100641.78
2022-12-23T03:54:01.528Z,100641.53
2022-12-23T03:56:39.843Z,100643.72
2022-12-23T03:59:21.418Z,100643.94
2022-12-23T04:02:02.748Z,100635.38
2022-12-23T04:04:41.161Z,100663.31
2022-12-23T04:07:17.467Z,100659.03
2022-12-23T04:09:44.829Z,100664.97
2022-12-23T04:12:14.268Z,100666.66
2022-12-23T04:14:47.574Z,100665.69
2022-12-23T04:17:14.367Z,100681.34
2022-12-23T04:19:42.021Z,100684.09
2022-12-23T04:22:08.438Z,100686.63
2022-12-23T04:24:34.833Z,100690.06
2022-12-23T04:27:01.304Z,100684.94
2022-12-23T04:29:27.700Z,100692.94
2022-12-23T04:31:54.133Z,100696.31
2022-12-23T04:34:20.594Z,100693.66
2022-12-23T04:36:46.968Z,100695.34
2022-12-23T04:39:13.468Z,100699.38
2022-12-23T04:41:39.808Z,100691.59
2022-12-23T04:44:07.436Z,100687.19
2022-12-23T04:46:33.954Z,100685.28
2022-12-23T04:49:00.374Z,100690.41
2022-12-23T04:51:26.794Z,100686.13
2022-12-23T04:53:53.236Z,100674.75
2022-12-23T04:56:19.599Z,100677.13
2022-12-23T04:58:46.018Z,100670.19
2022-12-23T05:01:12.718Z,100672.84
2022-12-23T05:03:39.814Z,100668.66
2022-12-23T05:06:07.221Z,100682.66
2022-12-23T05:08:33.870Z,100683.34
2022-12-23T05:11:00.283Z,100667.56
2022-12-23T05:13:26.939Z,100667.56
2022-12-23T05:15:54.753Z,100679.75
2022-12-23T05:18:22.024Z,100679.75
2022-12-23T05:20:49.152Z,100676.44
2022-12-23T05:23:15.514Z,100693.88
2022-12-23T05:25:41.880Z,100694.00
2022-12-23T05:28:09.473Z,100701.06
2022-12-23T05:30:36.069Z,100705.34
2022-12-23T05:33:02.680Z,100705.34
2022-12-23T05:35:29.070Z,100704.38
2022-12-23T05:37:55.596Z,100713.25
2022-12-23T05:40:24.880Z,100714.06
2022-12-23T05:42:54.041Z,100712.41
2022-12-23T05:45:20.798Z,100716.09
2022-12-23T05:47:47.203Z,100733.44
2022-12-23T05:50:14.009Z,100727.34
2022-12-23T05:52:40.520Z,100732.59
2022-12-23T05:55:07.530Z,100722.31
2022-12-23T05:57:33.850Z,100730.91
2022-12-23T06:00:00.240Z,100724.00
2022-12-23T06:02:26.813Z,100722.31
2022-12-23T06:04:53.337Z,100719.00
2022-12-23T06:07:19.696Z,100719.00
2022-12-23T06:09:46.157Z,100712.06
2022-12-23T06:12:12.972Z,100711.25
2022-12-23T06:14:39.376Z,100713.88
2022-12-23T06:17:05.850Z,100720.06
2022-12-23T06:19:32.328Z,100717.44
2022-12-23T06:21:58.705Z,100705.13
2022-12-23T06:24:25.055Z,100699.88
2022-12-23T06:26:56.807Z,100691.28
2022-12-23T06:29:24.246Z,100694.59
2022-12-23T06:31:50.758Z,100692.94
2022-12-23T06:34:17.259Z,100691.28
2022-12-23T06:36:43.712Z,100697.38
2022-12-23T06:39:10.758Z,100705.38
2022-12-23T06:41:37.165Z,100697.50
2022-12-23T06:44:03.667Z,100703.94
2022-12-23T06:46:30.119Z,100715.44
2022-12-23T06:48:56.553Z,100716.41
2022-12-23T06:51:22.896Z,100720.69
2022-12-23T06:53:49.360Z,100725.25
2022-12-23T06:56:15.763Z,100727.75
2022-12-23T06:58:42.209Z,100728.00
2022-12-23T07:01:10.093Z,100741.00
2022-12-23T07:03:36.936Z,100732.16
2022-12-23T07:06:03.621Z,100733.13
2022-12-23T07:08:30.025Z,100732.16
2022-12-23T07:11:04.927Z,100747.09
2022-12-23T07:13:32.874Z,100744.59
2022-12-23T07:15:59.634Z,100742.09
2022-12-23T07:18:26.260Z,100752.72
2022-12-23T07:20:52.704Z,100752.63
2022-12-23T07:23:19.097Z,100751.75
2022-12-23T07:25:45.599Z,100755.34
2022-12-23T07:28:12.015Z,100754.53
2022-12-23T07:30:38.552Z,100765.03
2022-12-23T07:33:04.884Z,100757.97
2022-12-23T07:35:31.212Z,100763.97
2022-12-23T07:37:57.593Z,100760.59
2022-12-23T07:40:25.238Z,100757.88
2022-12-23T07:42:56.938Z,100746.50
2022-12-23T07:45:24.218Z,100737.69
2022-12-23T07:47:54.621Z,100735.06
2022-12-23T07:50:21.431Z,100741.25
2022-12-23T07:52:47.920Z,100735.06
2022-12-23T07:55:14.728Z,100735.75
2022-12-23T07:57:41.261Z,100727.16
2022-12-23T08:00:11.990Z,100731.59
2022-12-23T08:02:38.458Z,100741.16
2022-12-23T08:05:05.732Z,100734.09
2022-12-23T08:07:32.189Z,100735.06
2022-12-23T08:09:58.580Z,100735.75
2022-12-23T08:12:25.255Z,100737.44
2022-12-23T08:14:52.617Z,100724.28
2022-12-23T08:17:21.340Z,100727.75
2022-12-23T08:19:48.968Z,100727.75
2022-12-23T08:22:15.672Z,100722.47
2022-12-23T08:24:42.145Z,100724.28
2022-12-23T08:27:08.693Z,100731.34
2022-12-23T08:29:36.594Z,100733.84
2022-12-23T08:32:03.179Z,100724.97
2022-12-23T08:34:29.537Z,100727.63
2022-12-23T08:36:55.871Z,100717.81
2022-12-23T08:39:22.365Z,100706.34
2022-12-23T08:41:48.948Z,100706.34
2022-12-23T08:44:16.800Z,100694.88
2022-12-23T08:46:44.082Z,100705.50
2022-12-23T08:49:10.596Z,100710.66
2022-12-23T08:51:38.091Z,100703.47
2022-12-23T08:54:05.479Z,100696.53
2022-12-23T08:56:34.937Z,100691.88
2022-12-23T08:59:01.413Z,100692.56
2022-12-23T09:01:30.114Z,100685.53
2022-12-23T09:03:57.223Z,100684.69
2022-12-23T09:06:30.434Z,100681.09
2022-12-23T09:08:58.130Z,100674.75
2022-12-23T09:11:27.063Z,100676.44
2022-12-23T09:13:54.057Z,100667.56
2022-12-23T09:16:20.545Z,100661.34
2022-12-23T09:18:47.087Z,100662.31
2022-12-23T09:21:18.088Z,100666.47
2022-12-23T09:23:44.495Z,100664.69
2022-12-23T09:26:12.414Z,100659.41
2022-12-23T09:28:39.619Z,100662.03
2022-12-23T09:31:08.651Z,100658.44
2022-12-23T09:33:35.711Z,100657.53
2022-12-23T09:36:03.325Z,100660.97
2022-12-23T09:38:29.798Z,100658.22
2022-12-23T09:41:22.566Z,100665.13
2022-12-23T09:44:03.315Z,100657.94
2022-12-23T09:46:34.001Z,100654.38
2022-12-23T09:49:10.631Z,100657.00
2022-12-23T09:51:37.167Z,100651.63
2022-12-23T09:54:23.323Z,100643.63
2022-12-23T09:56:52.497Z,100640.03
2022-12-23T09:59:42.363Z,100632.13
2022-12-23T10:02:19.007Z,100616.34
2022-12-23T10:05:02.803Z,100613.59
2022-12-23T10:07:43.558Z,100606.53
2022-12-23T10:10:46.928Z,100596.00
2022-12-23T10:13:22.577Z,100581.94
2022-12-23T10:15:52.463Z,100585.25
2022-12-23T10:18:49.388Z,100584.97
2022-12-23T10:21:31.346Z,100579.84
2022-12-23T10:24:03.630Z,100580.53
2022-12-23T10:26:41.558Z,100575.19
2022-12-23T10:29:19.455Z,100571.56
2022-12-23T10:32:16.928Z,100573.09
2022-12-23T10:35:01.000Z,100566.75
2022-12-23T10:37:35.141Z,100580.75
2022-12-23T10:40:13.326Z,100567.69
2022-12-23T10:42:49.629Z,100563.41
2022-12-23T10:45:21.746Z,100567.69
2022-12-23T10:47:52.638Z,100563.31
2022-12-23T10:50:34.580Z,100555.28
2022-12-23T10:53:04.577Z,100556.09
2022-12-23T10:55:36.110Z,100552.38
2022-12-23T10:58:08.805Z,100548.75
2022-12-23T11:00:38.813Z,100544.22
2022-12-23T11:03:27.777Z,100541.59
2022-12-23T11:05:55.851Z,100538.81
2022-12-23T11:08:24.233Z,100534.97
2022-12-23T11:10:50.669Z,100529.56
2022-12-23T11:13:32.435Z,100523.34
2022-12-23T11:16:31.183Z,100525.00
2022-12-23T11:19:15.016Z,100522.38
2022-12-23T11:21:55.296Z,100519.72
2022-12-23T11:24:23.001Z,100516.13
2022-12-23T11:26:59.565Z,100526.66
2022-12-23T11:29:35.447Z,100521.28
2022-12-23T11:32:04.974Z,100509.78
2022-12-23T11:34:38.360Z,100510.63
2022-12-23T11:37:07.565Z,100495.66
2022-12-23T11:39:37.082Z,100491.22
2022-12-23T11:42:11.326Z,100484.03
2022-12-23T11:44:37.628Z,100472.41
2022-12-23T11:47:22.561Z,100455.66
2022-12-23T11:49:57.496Z,100444.16
2022-12-23T11:52:29.944Z,100440.53
2022-12-23T11:55:01.918Z,100448.31
2022-12-23T11:57:42.900Z,100427.25
2022-12-23T12:00:20.494Z,100418.38
2022-12-23T12:02:52.684Z,100409.66
2022-12-23T12:05:31.361Z,100412.28
2022-12-23T12:08:03.853Z,100406.19
2022-12-23T12:10:33.341Z,100406.19
2022-12-23T12:13:03.573Z,100400.25
2022-12-23T12:15:44.137Z,100386.09
2022-12-23T12:18:15.099Z,100395.94
2022-12-23T12:20:48.416Z,100385.41
2022-12-23T12:23:20.991Z,100392.50
2022-12-23T12:25:55.295Z,100396.78
2022-12-23T12:28:25.707Z,100389.84
2022-12-23T12:31:11.599Z,100376.69
2022-12-23T12:33:48.466Z,100369.88
2022-12-23T12:36:30.132Z,100348.84
2022-12-23T12:38:59.004Z,100335.00
2022-12-23T12:41:38.395Z,100334.16
2022-12-23T12:44:45.308Z,100332.50
2022-12-23T12:47:36.743Z,100329.06
2022-12-23T12:50:16.449Z,100314.25
2022-12-23T12:52:43.359Z,100305.38
2022-12-23T12:55:33.221Z,100298.44
2022-12-23T12:58:02.604Z,100292.22
2022-12-23T13:00:35.573Z,100290.56
2022-12-23T13:03:24.934Z,100293.19
2022-12-23T13:06:30.648Z,100284.47
2022-12-23T13:09:34.832Z,100271.31
2022-12-23T13:12:14.634Z,100268.53
2022-12-23T13:15:11.660Z,100270.19
2022-12-23T13:18:12.059Z,100269.22
2022-12-23T13:21:06.444Z,100263.28
2022-12-23T13:23:47.722Z,100266.88
2022-12-23T13:26:17.713Z,100271.31
2022-12-23T13:29:08.306Z,100266.03
2022-12-23T13:31:50.196Z,100260.91
2022-12-23T13:34:25.908Z,100258.28
2022-12-23T13:37:16.953Z,100245.25
2022-12-23T13:39:52.905Z,100249.00
2022-12-23T13:42:32.438Z,100241.94
2022-12-23T13:45:01.122Z,100250.94
2022-12-23T13:48:05.554Z,100258.81
2022-12-23T13:50:38.509Z,100249.97
2022-12-23T13:53:21.843Z,100235.28
2022-12-23T13:55:59.409Z,100229.88
2022-12-23T13:58:28.568Z,100229.78
2022-12-23T14:01:07.905Z,100207.88
2022-12-23T14:03:36.300Z,100200.94
2022-12-23T14:06:22.045Z,100200.94
2022-12-23T14:08:49.633Z,100181.69
2022-12-23T14:11:19.343Z,100180.72
2022-12-23T14:13:51.916Z,100162.19
2022-12-23T14:16:21.375Z,100168.81
2022-12-23T14:19:03.092Z,100174.34
2022-12-23T14:21:50.787Z,100171.44
2022-12-23T14:24:39.057Z,100171.28
2022-12-23T14:27:36.577Z,100170.31
2022-12-23T14:30:14.329Z,100161.72
2022-12-23T14:32:58.655Z,100152.19
2022-12-23T14:35:27.847Z,100156.75
2022-12-23T14:38:15.785Z,100153.44
2022-12-23T14:40:42.120Z,100154.69
2022-12-23T14:43:26.739Z,100161.88
2022-12-23T14:45:58.033Z,100169.09
2022-12-23T14:48:33.610Z,100162.19
2022-12-23T14:51:20.954Z,100172.41
2022-12-23T14:53:59.299Z,100178.81
2022-12-23T14:56:41.032Z,100186.53
2022-12-23T15:02:36.870Z,100171.44
2022-12-23T15:05:03.846Z,100161.75
2022-12-23T15:07:43.043Z,100167.97
2022-12-23T15:10:21.612Z,100166.31
2022-12-23T15:12:52.152Z,100165.50
2022-12-23T15:15:22.443Z,100158.59
2022-12-23T15:17:49.138Z,100151.66
2022-12-23T15:20:20.109Z,100147.34
2022-12-23T15:22:48.053Z,100146.66
2022-12-23T15:25:24.390Z,100139.06
2022-12-23T15:27:57.371Z,100152.34
2022-12-23T15:30:30.359Z,100152.50
2022-12-23T15:33:02.656Z,100147.22
2022-12-23T15:35:33.388Z,100148.06
2022-12-23T15:38:01.528Z,100143.94
2022-12-23T15:41:13.347Z,100132.44
2022-12-23T15:43:44.764Z,100137.84
2022-12-23T15:46:29.371Z,100158.06
2022-12-23T15:48:56.722Z,100137.84
2022-12-23T15:54:22.487Z,100142.28
2022-12-23T15:56:52.094Z,100146.72
2022-12-23T15:59:25.419Z,100159.97
2022-12-23T16:01:52.740Z,100161.66
2022-12-23T16:04:24.991Z,100155.56
2022-12-23T16:06:51.877Z,100158.06
2022-12-23T16:09:19.043Z,100159.72
2022-12-23T16:11:51.523Z,100168.28
2022-12-23T16:14:32.783Z,100170.91
2022-12-23T16:17:15.285Z,100157.75
2022-12-23T16:19:49.944Z,100169.94
2022-12-23T16:22:36.199Z,100171.63
2022-12-23T16:25:11.817Z,100166.38
2022-12-23T16:27:48.036Z,100160.38
2022-12-23T16:30:18.301Z,100159.28
2022-12-23T16:32:55.030Z,100151.41
2022-12-23T16:35:38.025Z,100150.56
2022-12-23T16:38:22.287Z,100154.16
2022-12-23T16:40:56.637Z,100148.91
2022-12-23T16:43:24.698Z,100159.41
2022-12-23T16:45:54.411Z,100162.03
2022-12-23T16:48:23.855Z,100158.47
2022-12-23T16:50:52.363Z,100164.69
2022-12-23T16:53:19.419Z,100162.03
2022-12-23T16:55:52.452Z,100173.53
2022-12-23T16:58:23.237Z,100164.69
2022-12-23T17:00:50.609Z,100170.91
2022-12-23T17:03:19.195Z,100171.88
2022-12-23T17:05:47.011Z,100173.53
2022-12-23T17:08:13.429Z,100179.63
2022-12-23T17:10:42.275Z,100178.81
2022-12-23T17:13:11.929Z,100174.50
2022-12-23T17:15:38.616Z,100186.00
2022-12-23T17:18:12.306Z,100191.28
2022-12-23T17:20:38.823Z,100176.31
2022-12-23T17:23:06.198Z,100182.41
2022-12-23T17:25:32.560Z,100173.84
2022-12-23T17:27:59.038Z,100184.38
2022-12-23T17:30:25.676Z,100196.53
2022-12-23T17:32:56.496Z,100191.28
2022-12-23T17:35:24.684Z,100188.66
2022-12-23T17:37:51.740Z,100191.69
2022-12-23T17:40:18.312Z,100180.19
2022-12-23T17:42:45.784Z,100181.03
2022-12-23T17:45:24.364Z,100184.06
2022-12-23T17:47:50.780Z,100181.25
2022-12-23T17:50:17.235Z,100186.91
2022-12-23T17:52:43.645Z,100184.69
2022-12-23T17:55:36.244Z,100177.88
2022-12-23T17:58:03.526Z,100191.03
2022-12-23T18:00:34.338Z,100175.63
2022-12-23T18:03:01.504Z,100179.63
2022-12-23T18:05:30.519Z,100176.69
2022-12-23T18:07:58.918Z,100179.16
2022-12-23T18:10:28.608Z,100184.50
2022-12-23T18:12:58.090Z,100191.59
2022-12-23T18:15:35.600Z,100202.38
2022-12-23T18:18:11.062Z,100190.97
2022-12-23T18:20:37.539Z,100200.94
2022-12-23T18:23:05.019Z,100193.69
2022-12-23T18:25:31.704Z,100202.00
2022-12-23T18:27:58.094Z,100213.59
2022-12-23T18:30:24.453Z,100204.72
2022-12-23T18:32:50.827Z,100210.00
2022-12-23T18:35:32.954Z,100219.53
2022-12-23T18:38:00.333Z,100218.56
2022-12-23T18:40:32.732Z,100219.13
2022-12-23T18:42:59.935Z,100218.28
2022-12-23T18:45:31.927Z,100231.47
2022-12-23T18:47:59.197Z,100230.47
2022-12-23T18:50:26.618Z,100230.47
2022-12-23T18:52:53.556Z,100240.03
2022-12-23T18:55:20.512Z,100237.41
2022-12-23T18:57:48.268Z,100246.97
2022-12-23T19:00:18.431Z,100249.59
2022-12-23T19:02:45.155Z,100246.31
2022-12-23T19:05:26.816Z,100262.13
2022-12-23T19:07:56.041Z,100252.41
2022-12-23T19:10:25.862Z,100255.19
2022-12-23T19:12:53.061Z,100259.91
2022-12-23T19:15:20.614Z,100249.22
2022-12-23T19:17:47.308Z,100259.06
2022-12-23T19:20:15.751Z,100249.09
2022-12-23T19:22:42.448Z,100260.47
2022-12-23T19:25:11.549Z,100249.09
2022-12-23T19:27:39.797Z,100256.53
2022-12-23T19:30:08.343Z,100260.16
2022-12-23T19:32:34.786Z,100267.38
2022-12-23T19:35:01.185Z,100273.63
2022-12-23T19:37:27.721Z,100279.03
2022-12-23T19:39:54.153Z,100286.41
2022-12-23T19:42:20.672Z,100290.72
2022-12-23T19:44:47.096Z,100282.66
2022-12-23T19:47:13.921Z,100293.75
2022-12-23T19:49:40.273Z,100291.53
2022-12-23T19:52:06.852Z,100296.97
2022-12-23T19:54:33.317Z,100302.91
2022-12-23T19:56:59.733Z,100305.94
2022-12-23T19:59:26.303Z,100299.00
2022-12-23T20:01:52.829Z,100314.53
2022-12-23T20:04:19.377Z,100323.41
2022-12-23T20:06:46.021Z,100326.72
2022-12-23T20:09:13.483Z,100321.09
2022-12-23T20:11:42.875Z,100331.75
2022-12-23T20:14:09.443Z,100336.06
2022-12-23T20:16:36.975Z,100341.47
2022-12-23T20:19:03.993Z,100342.00
2022-12-23T20:21:30.568Z,100331.47
2022-12-23T20:23:57.115Z,100344.81
2022-12-23T20:26:23.883Z,100343.66
2022-12-23T20:28:50.971Z,100340.22
2022-12-23T20:31:22.689Z,100339.53
2022-12-23T20:33:50.910Z,100353.91
2022-12-23T20:36:20.830Z,100355.03
2022-12-23T20:38:47.820Z,100366.72
2022-12-23T20:41:21.890Z,100383.38
2022-12-23T20:44:02.694Z,100362.28
2022-12-23T20:46:35.149Z,100375.56
2022-12-23T20:49:01.587Z,100377.50
2022-12-23T20:51:27.954Z,100372.25
2022-12-23T20:53:59.820Z,100375.25
2022-12-23T20:56:27.736Z,100383.03
2022-12-23T20:58:55.129Z,100394.69
2022-12-23T21:01:25.467Z,100412.88
2022-12-23T21:03:52.670Z,100404.97
2022-12-23T21:06:20.159Z,100413.53
2022-12-23T21:08:46.912Z,100414.22
2022-12-23T21:11:13.516Z,100423.41
2022-12-23T21:13:40.379Z,100432.97
2022-12-23T21:16:09.650Z,100432.31
2022-12-23T21:18:40.402Z,100428.28
2022-12-23T21:21:07.073Z,100430.75
2022-12-23T21:23:36.855Z,100438.53
2022-12-23T21:26:24.037Z,100439.66
2022-12-23T21:28:52.445Z,100440.22
2022-12-23T21:31:22.078Z,100443.69
2022-12-23T21:33:50.412Z,100445.50
2022-12-23T21:36:20.524Z,100451.72
2022-12-23T21:38:48.876Z,100465.59
2022-12-23T21:41:23.240Z,100457.13
2022-12-23T21:43:50.091Z,100466.84
2022-12-23T21:46:18.884Z,100469.22
2022-12-23T21:48:45.957Z,100473.94
2022-12-23T21:51:16.776Z,100478.38
2022-12-23T21:53:45.247Z,100483.53
2022-12-23T21:56:14.830Z,100483.22
2022-12-23T21:58:41.740Z,100483.22
2022-12-23T22:01:15.501Z,100492.13
2022-12-23T22:03:42.673Z,100495.44
2022-12-23T22:06:14.644Z,100501.00
2022-12-23T22:08:41.461Z,100501.69
2022-12-23T22:11:11.162Z,100502.13
2022-12-23T22:13:37.962Z,100516.97
2022-12-23T22:16:08.040Z,100515.16
2022-12-23T22:18:34.522Z,100522.13
2022-12-23T22:21:05.215Z,100530.16
2022-12-23T22:23:31.610Z,100535.13
2022-12-23T22:25:58.021Z,100524.84
2022-12-23T22:28:24.355Z,100544.00
2022-12-23T22:30:50.793Z,100552.31
2022-12-23T22:33:17.294Z,100551.19
2022-12-23T22:35:43.863Z,100551.63
2022-12-23T22:38:10.263Z,100560.94
2022-12-23T22:40:36.583Z,100573.38
2022-12-23T22:43:03.081Z,100573.66
2022-12-23T22:45:29.564Z,100574.09
2022-12-23T22:47:56.013Z,100581.03
2022-12-23T22:50:22.464Z,100581.72
2022-12-23T22:52:48.854Z,100575.88
2022-12-23T22:55:15.311Z,100579.47
2022-12-23T22:57:41.711Z,100588.91
2022-12-23T23:00:12.579Z,100594.16
2022-12-23T23:02:39.432Z,100594.75
2022-12-23T23:05:12.345Z,100591.13
2022-12-23T23:07:39.181Z,100595.56
2022-12-23T23:10:06.228Z,100598.50
2022-12-23T23:12:32.676Z,100604.44
2022-12-23T23:14:59.071Z,100598.09
2022-12-23T23:17:27.361Z,100604.88
2022-12-23T23:19:54.371Z,100609.19
2022-12-23T23:22:22.384Z,100615.56
2022-12-23T23:24:49.218Z,100614.16
2022-12-23T23:27:15.761Z,100606.41
2022-12-23T23:29:42.510Z,100608.78
2022-12-23T23:32:09.872Z,100612.09
2022-12-23T23:34:37.008Z,100609.47
2022-12-23T23:37:04.700Z,100616.41
2022-12-23T23:39:31.085Z,100619.03
2022-12-23T23:41:57.429Z,100622.19
2022-12-23T23:44:23.806Z,100648.00
2022-12-23T23:46:50.250Z,100648.28
2022-12-23T23:49:16.713Z,100649.97
2022-12-23T23:51:43.226Z,100654.09
2022-12-23T23:54:10.385Z,100653.28
2022-12-23T23:56:39.215Z,100652.69
2022-12-23T23:59:07.074Z,100657.03
